Tollhouse, CA

12:04 AM PDT on August 29, 2014 (GMT -0700)
Hanford Municipal | Change Station
CLOSE
Current Station
Airport
Location: Hanford,
Elevation: 243 ft
Nearby Weather Stations

Elev 243 ft 36.32 °N, 119.63 °W | Updated 11 minutes ago

Clear
Clear
80 °F
Feels Like 80 °F
N
9
Wind Variable Wind from NW

Today
High -- | Low -- °F
--% Chance of Precip.
Yesterday
High -- | Low -- °F
Precip. -- in
6:26 AM 7:30 PM
Waxing Crescent, 12% visible
Pressure 29.88 in
Visibility 10.0 miles
Clouds Clear
Heat Index 80 °F
Dew Point 54 °F
Humidity 40%
Rainfall 0.00 in
Snow Depth Not available.
UV 0 out of 12
Pollen 9.10 out of 12
Air Quality Not available.
Flu Activity Not available.
METAR KHJO 290653Z AUTO 31008KT 10SM CLR 27/12 A2988 RMK AO2 SLP117 T02670122

More Conditions Fewer Conditions

Pressure 29.88 in
Visibility 10.0 miles
Clouds Clear
Heat Index 80 °F
Dew Point 54 °F
Humidity 40%
Rainfall 0.00 in
Snow Depth Not available.
UV 0 out of 12
Pollen 9.10 out of 12
Air Quality Not available.
Flu Activity Not available.
METAR KHJO 290653Z AUTO 31008KT 10SM CLR 27/12 A2988 RMK AO2 SLP117 T02670122

More Conditions Fewer Conditions

10-Day Weather Forecast

Almanac

Astronomy

Aug. 29, 2014 Rise Set
Actual Time 6:26 AM PDT 7:30 PM PDT
Civil Twilight 5:59 AM PDT 7:56 PM PDT
Nautical Twilight 5:27 AM PDT 8:28 PM PDT
Astronomical Twilight 4:54 AM PDT 9:01 PM PDT
Moon 10:13 AM PDT 9:37 PM PDT
Length of Visible Light 13h 57m
Length of Day
13h 04m
Tomorrow will be 2m 14s shorter.
Waxing Crescent, 12% of the Moon is Illuminated
Today
Waxing Crescent
Sep 2
First Quarter
Sep 8
Full
Sep 15
Last Quarter
Sep 24
New

Community

WunderPhotos

Upload Photos

1,748,197 photos uploaded!

Nearby

Snow Depth

Station Depth Elevation
Leavitt Lake 1 in 9400 ft
Leavitt Meadows 1 in 7200 ft
Summit Meadow 0 in 9122 ft
Blue Lakes 0 in 8000 ft
Monitor Pass 1 in 8350 ft

Earthquake Activity

City Distance Mag. Time & Date
Soledad, California 100 miles 2.6 12:15 PM PDT
2014-08-26
Minimum magnitude displayed is 2.5.

Coastal Water Temperatures

Place Temperature
No Stations Reporting

Nearby Weather Stations